Time;durP1;ratioP1;P1;durP2;ratioP2;P2;SDS_P1;SDS_P2;PMS_P1;PMS_P2;Temp;Humidity;BMP_temperature;BMP_pressure;BME280_temperature;BME280_humidity;BME280_pressure;Samples;Min_cycle;Max_cycle;Signal;HPM_P1;HPM_P2
2023/12/26 00:01:15;;;;;;;2.40;0.30;;;10.10;90.70;;;;;;4988262;28;20050;-72
2023/12/26 00:03:41;;;;;;;2.42;0.30;;;10.10;90.60;;;;;;4970741;28;20673;-72
2023/12/26 00:06:10;;;;;;;1.90;0.22;;;10.10;90.70;;;;;;4987541;28;20058;-72
2023/12/26 00:08:36;;;;;;;1.17;0.20;;;10.10;90.80;;;;;;4987742;28;20360;-72
2023/12/26 00:11:04;;;;;;;1.65;0.30;;;10.10;90.80;;;;;;4995948;28;20054;-72
2023/12/26 00:13:30;;;;;;;1.63;0.30;;;10.10;90.70;;;;;;5014384;28;20500;-72
2023/12/26 00:15:57;;;;;;;2.42;0.60;;;10.10;90.90;;;;;;5004935;28;20054;-72
2023/12/26 00:18:24;;;;;;;2.47;0.60;;;10.10;90.90;;;;;;5005315;28;20105;-72
2023/12/26 00:20:51;;;;;;;1.65;0.40;;;10.10;91.10;;;;;;4976275;28;20484;-72
2023/12/26 00:23:20;;;;;;;2.45;0.32;;;10.10;91.10;;;;;;4988664;28;20504;-72
2023/12/26 00:25:47;;;;;;;3.13;0.40;;;10.10;91.20;;;;;;4999946;28;20058;-72
2023/12/26 00:28:16;;;;;;;1.92;0.30;;;10.10;91.40;;;;;;4986478;28;20655;-72
2023/12/26 00:30:42;;;;;;;2.08;0.40;;;10.10;91.50;;;;;;4989784;28;20054;-72
2023/12/26 00:33:09;;;;;;;1.48;0.20;;;10.20;91.40;;;;;;4983615;28;20081;-72
2023/12/26 00:35:36;;;;;;;1.33;0.20;;;10.20;91.40;;;;;;4980952;28;20058;-72
2023/12/26 00:38:03;;;;;;;0.90;0.20;;;10.20;91.30;;;;;;4997510;28;20787;-72
2023/12/26 00:40:32;;;;;;;0.85;0.10;;;10.20;91.20;;;;;;4987461;28;20061;-72
2023/12/26 00:42:58;;;;;;;0.90;0.20;;;10.20;91.20;;;;;;4999974;28;20574;-72
2023/12/26 00:45:25;;;;;;;1.30;0.10;;;10.20;91.20;;;;;;4976635;28;20058;-72
2023/12/26 00:47:52;;;;;;;1.20;0.10;;;10.20;91.20;;;;;;4988254;28;20730;-72
2023/12/26 00:50:19;;;;;;;1.43;0.10;;;10.20;91.20;;;;;;4982791;28;20046;-72
2023/12/26 00:52:46;;;;;;;3.15;0.20;;;10.30;91.10;;;;;;5001850;28;20061;-72
2023/12/26 00:55:13;;;;;;;0.82;0.10;;;10.30;91.00;;;;;;5004086;28;20050;-72
2023/12/26 00:57:41;;;;;;;1.17;0.20;;;10.30;91.10;;;;;;5001636;28;20053;-72
2023/12/26 01:00:09;;;;;;;1.52;0.10;;;10.30;91.10;;;;;;4979206;28;20092;-72
2023/12/26 01:02:36;;;;;;;1.47;0.17;;;10.30;91.20;;;;;;4970636;28;20053;-72
2023/12/26 01:05:03;;;;;;;1.40;0.10;;;10.30;91.10;;;;;;4995084;28;20054;-72
2023/12/26 01:07:30;;;;;;;1.48;0.10;;;10.30;91.10;;;;;;4989947;28;20056;-72
2023/12/26 01:10:00;;;;;;;0.80;0.10;;;10.30;90.90;;;;;;4967838;28;20060;-72
2023/12/26 01:12:27;;;;;;;1.80;0.10;;;10.30;90.70;;;;;;4972744;28;20536;-72
2023/12/26 01:14:55;;;;;;;1.97;0.20;;;10.30;90.50;;;;;;4992786;28;20050;-72
2023/12/26 01:17:22;;;;;;;1.85;0.20;;;10.30;90.40;;;;;;4968058;28;20055;-72
2023/12/26 01:19:49;;;;;;;1.75;0.22;;;10.30;90.50;;;;;;4971638;28;20054;-72
2023/12/26 01:22:17;;;;;;;1.40;0.30;;;10.30;90.20;;;;;;4984785;28;21191;-72
2023/12/26 01:24:44;;;;;;;1.75;0.20;;;10.30;90.40;;;;;;4974397;28;20137;-72
2023/12/26 01:27:11;;;;;;;2.37;0.20;;;10.20;90.40;;;;;;4994228;28;20088;-72
2023/12/26 01:29:38;;;;;;;1.13;0.13;;;10.20;90.50;;;;;;4997251;28;20046;-72
2023/12/26 01:32:07;;;;;;;1.85;0.20;;;10.20;90.40;;;;;;4988928;28;20129;-72
2023/12/26 01:34:34;;;;;;;1.65;0.20;;;10.20;90.00;;;;;;4999154;28;20094;-72
2023/12/26 01:37:01;;;;;;;1.92;0.28;;;10.20;90.00;;;;;;4962498;28;20050;-73
2023/12/26 01:39:28;;;;;;;1.60;0.20;;;10.20;90.00;;;;;;4996475;28;20056;-72
2023/12/26 01:41:55;;;;;;;0.93;0.10;;;10.10;90.10;;;;;;4988847;28;20129;-72
2023/12/26 01:44:22;;;;;;;1.65;0.20;;;10.10;90.20;;;;;;4989709;28;20047;-72
2023/12/26 01:46:49;;;;;;;2.58;0.40;;;10.10;90.10;;;;;;4982054;28;20058;-72
2023/12/26 01:49:18;;;;;;;3.67;0.30;;;10.10;89.80;;;;;;4970285;28;20051;-72
2023/12/26 01:51:47;;;;;;;3.93;0.30;;;10.10;89.70;;;;;;4964850;28;20055;-72
2023/12/26 01:54:16;;;;;;;3.42;0.40;;;10.10;89.60;;;;;;4985297;28;20085;-72
2023/12/26 01:56:43;;;;;;;4.55;0.32;;;10.10;89.40;;;;;;4975223;28;20554;-72
2023/12/26 01:59:10;;;;;;;3.97;0.60;;;10.10;89.00;;;;;;4993048;28;20074;-72
2023/12/26 02:01:37;;;;;;;3.38;0.30;;;10.00;88.90;;;;;;4980594;28;20300;-72
2023/12/26 02:04:04;;;;;;;2.90;0.40;;;10.00;89.00;;;;;;5009707;28;20061;-72
2023/12/26 02:06:36;;;;;;;2.92;0.35;;;10.00;89.10;;;;;;4978402;28;20100;-72
2023/12/26 02:09:08;;;;;;;4.65;0.40;;;10.00;89.00;;;;;;5000592;28;20069;-72
2023/12/26 02:11:37;;;;;;;4.05;0.35;;;10.00;88.90;;;;;;4962098;28;20055;-72
2023/12/26 02:14:05;;;;;;;7.03;0.40;;;10.00;88.90;;;;;;4986871;28;20091;-72
2023/12/26 02:16:35;;;;;;;5.27;0.40;;;10.00;88.70;;;;;;4993593;28;20061;-72
2023/12/26 02:19:02;;;;;;;3.08;0.25;;;10.00;88.60;;;;;;4985601;28;20054;-72
2023/12/26 02:21:29;;;;;;;5.10;0.75;;;10.00;88.60;;;;;;4985624;28;20138;-72
2023/12/26 02:23:57;;;;;;;7.90;0.70;;;10.00;88.50;;;;;;4972912;28;20046;-72
2023/12/26 02:26:27;;;;;;;2.95;0.35;;;10.00;88.70;;;;;;5004563;28;20050;-72
2023/12/26 02:28:55;;;;;;;4.77;0.50;;;10.00;88.60;;;;;;4964854;28;20110;-72
2023/12/26 02:31:23;;;;;;;1.85;0.20;;;10.00;88.60;;;;;;4991308;28;20428;-72
2023/12/26 02:33:50;;;;;;;3.80;0.30;;;10.00;88.80;;;;;;5011925;28;20490;-72
2023/12/26 02:36:17;;;;;;;4.90;0.45;;;10.00;89.00;;;;;;4991006;28;20047;-72
2023/12/26 02:38:44;;;;;;;4.43;0.60;;;9.90;89.20;;;;;;4986720;28;20054;-72
2023/12/26 02:41:13;;;;;;;2.83;0.30;;;10.00;89.10;;;;;;5020517;28;20140;-72
2023/12/26 02:43:40;;;;;;;3.03;0.47;;;10.00;89.20;;;;;;4996113;28;20137;-72
2023/12/26 02:46:08;;;;;;;7.28;0.63;;;9.90;89.30;;;;;;4987138;28;20078;-72
2023/12/26 02:48:36;;;;;;;6.53;0.80;;;10.00;89.30;;;;;;4990513;28;20053;-72
2023/12/26 02:51:04;;;;;;;10.52;0.90;;;10.00;89.20;;;;;;4990484;28;20050;-72
2023/12/26 02:53:30;;;;;;;4.50;0.50;;;10.00;89.00;;;;;;5015192;28;20057;-72
2023/12/26 02:55:57;;;;;;;5.28;0.77;;;10.00;88.70;;;;;;4972511;28;20064;-72
2023/12/26 02:58:26;;;;;;;5.65;0.63;;;10.00;88.50;;;;;;4978341;28;20080;-73
2023/12/26 03:00:54;;;;;;;8.20;1.00;;;10.00;88.00;;;;;;4982721;28;20049;-72
2023/12/26 03:03:20;;;;;;;6.35;0.68;;;10.00;87.80;;;;;;4972285;28;20054;-72
2023/12/26 03:05:48;;;;;;;5.53;0.40;;;10.00;87.50;;;;;;4960406;28;20090;-72
2023/12/26 03:08:15;;;;;;;4.63;0.55;;;10.00;87.10;;;;;;4981933;28;20081;-72
2023/12/26 03:10:42;;;;;;;4.40;0.50;;;10.00;87.00;;;;;;4993055;28;20838;-73
2023/12/26 03:13:09;;;;;;;5.45;0.65;;;10.10;86.90;;;;;;4979844;28;20051;-72
2023/12/26 03:15:37;;;;;;;7.13;1.02;;;10.00;86.70;;;;;;4990672;28;20046;-72
2023/12/26 03:18:05;;;;;;;3.27;0.67;;;10.00;86.80;;;;;;4981071;28;20108;-72
2023/12/26 03:20:31;;;;;;;6.78;0.80;;;10.00;86.80;;;;;;4976125;28;20058;-72
2023/12/26 03:22:58;;;;;;;7.50;1.33;;;10.00;86.80;;;;;;4988405;28;20057;-73
2023/12/26 03:25:25;;;;;;;8.13;0.47;;;10.00;86.90;;;;;;4995940;28;20140;-73
2023/12/26 03:27:52;;;;;;;3.75;0.50;;;10.00;87.20;;;;;;4984042;28;20058;-73
2023/12/26 03:30:19;;;;;;;2.97;0.37;;;10.00;87.30;;;;;;4976004;28;20047;-72
2023/12/26 03:32:47;;;;;;;4.90;0.73;;;10.00;85.00;;;;;;4971932;28;20061;-73
2023/12/26 03:35:14;;;;;;;4.20;0.43;;;9.80;79.80;;;;;;4974428;28;20868;-73
2023/12/26 03:37:41;;;;;;;4.45;0.40;;;9.60;79.40;;;;;;5003590;28;20695;-73
2023/12/26 03:40:10;;;;;;;4.15;0.52;;;9.40;78.40;;;;;;4984420;28;20050;-72
2023/12/26 03:42:37;;;;;;;6.40;0.30;;;9.20;76.70;;;;;;5015977;28;20060;-73
2023/12/26 03:45:05;;;;;;;3.50;0.25;;;9.00;77.80;;;;;;4989626;28;20052;-73
2023/12/26 03:47:32;;;;;;;4.63;0.50;;;8.90;78.20;;;;;;4996245;28;20085;-73
2023/12/26 03:50:01;;;;;;;6.93;0.50;;;8.90;78.60;;;;;;4972920;28;20495;-72
2023/12/26 03:52:28;;;;;;;3.70;0.40;;;8.80;79.40;;;;;;4994339;28;20618;-72
2023/12/26 03:54:57;;;;;;;4.43;0.70;;;8.80;79.90;;;;;;4989518;28;20072;-73
2023/12/26 03:57:24;;;;;;;6.53;0.68;;;8.80;80.00;;;;;;4986023;28;20058;-72
2023/12/26 03:59:51;;;;;;;6.63;0.60;;;8.80;80.00;;;;;;4990567;28;20061;-72
2023/12/26 04:02:18;;;;;;;5.22;0.50;;;8.90;80.00;;;;;;4977331;28;20146;-72
2023/12/26 04:04:46;;;;;;;7.07;0.80;;;8.90;79.70;;;;;;5010749;28;20065;-73
2023/12/26 04:07:14;;;;;;;6.23;0.90;;;8.90;79.50;;;;;;4971745;28;20050;-73
2023/12/26 04:09:41;;;;;;;6.55;0.70;;;8.90;78.80;;;;;;5000157;28;20803;-73
2023/12/26 04:12:09;;;;;;;8.10;1.10;;;9.00;79.00;;;;;;4974306;28;20051;-73
2023/12/26 04:14:36;;;;;;;7.50;1.33;;;9.00;78.70;;;;;;4984886;28;20058;-73
2023/12/26 04:17:03;;;;;;;7.28;0.95;;;9.00;78.40;;;;;;4991872;28;20046;-73
2023/12/26 04:19:30;;;;;;;7.10;0.67;;;9.00;78.30;;;;;;4979552;28;20085;-72
2023/12/26 04:21:57;;;;;;;6.47;0.63;;;8.90;78.60;;;;;;5010182;28;20062;-73
2023/12/26 04:24:25;;;;;;;5.53;1.10;;;8.90;78.40;;;;;;4971546;28;21469;-73
2023/12/26 04:26:52;;;;;;;4.22;0.68;;;8.90;78.30;;;;;;5005258;28;20054;-73
2023/12/26 04:29:19;;;;;;;6.65;0.93;;;8.90;77.80;;;;;;4977374;28;20905;-73
2023/12/26 04:31:46;;;;;;;10.93;1.30;;;8.80;78.30;;;;;;4971609;28;20053;-73
2023/12/26 04:34:13;;;;;;;9.60;0.88;;;8.80;77.90;;;;;;4965684;28;20050;-72
2023/12/26 04:36:40;;;;;;;10.68;1.13;;;8.80;77.90;;;;;;5012486;28;20057;-73
2023/12/26 04:39:07;;;;;;;8.48;1.00;;;8.80;77.90;;;;;;4993134;28;20505;-73
2023/12/26 04:41:35;;;;;;;7.50;1.00;;;8.80;77.60;;;;;;4974037;28;20046;-73
2023/12/26 04:44:03;;;;;;;8.80;1.07;;;8.80;77.50;;;;;;4989146;28;20054;-73
2023/12/26 04:46:30;;;;;;;7.97;1.15;;;8.80;77.50;;;;;;4991300;28;20059;-73
2023/12/26 04:48:57;;;;;;;8.38;1.00;;;8.80;77.40;;;;;;4964239;28;20126;-73
2023/12/26 04:51:25;;;;;;;7.38;0.50;;;8.80;77.10;;;;;;4958732;28;20129;-73
2023/12/26 04:53:52;;;;;;;4.95;0.60;;;8.80;77.30;;;;;;4973690;28;20108;-73
2023/12/26 04:56:21;;;;;;;5.57;0.83;;;8.80;77.40;;;;;;4993436;28;20062;-73
2023/12/26 04:58:50;;;;;;;5.47;1.00;;;8.70;77.40;;;;;;4988082;28;20046;-73
2023/12/26 05:01:18;;;;;;;7.57;1.08;;;8.70;77.40;;;;;;4975546;28;20053;-73
2023/12/26 05:03:46;;;;;;;5.90;0.70;;;8.70;77.60;;;;;;4989890;28;20085;-73
2023/12/26 05:06:14;;;;;;;5.53;0.77;;;8.60;77.60;;;;;;5004059;28;20058;-73
2023/12/26 05:08:41;;;;;;;8.43;0.80;;;8.60;77.70;;;;;;4977455;28;20122;-73
2023/12/26 05:11:08;;;;;;;5.47;0.60;;;8.60;77.80;;;;;;4989562;28;20694;-73
2023/12/26 05:13:37;;;;;;;6.57;0.70;;;8.60;77.90;;;;;;4982049;28;20197;-73
2023/12/26 05:16:06;;;;;;;5.22;0.80;;;8.60;78.10;;;;;;4974076;28;20058;-73
2023/12/26 05:18:33;;;;;;;4.93;0.50;;;8.60;78.30;;;;;;5004980;28;20058;-73
2023/12/26 05:21:00;;;;;;;6.17;0.60;;;8.60;78.50;;;;;;4973091;28;20050;-73
2023/12/26 05:23:28;;;;;;;7.22;1.02;;;8.60;78.80;;;;;;4990842;28;20069;-73
2023/12/26 05:25:55;;;;;;;8.70;1.00;;;8.60;78.90;;;;;;4954465;28;20956;-73
2023/12/26 05:28:23;;;;;;;2.60;0.20;;;8.60;79.30;;;;;;4974479;28;20054;-73
2023/12/26 05:30:50;;;;;;;6.95;0.90;;;8.60;79.40;;;;;;4972717;28;20348;-73
2023/12/26 05:33:18;;;;;;;7.10;0.90;;;8.60;79.70;;;;;;4991539;28;20070;-73
2023/12/26 05:35:45;;;;;;;10.13;0.95;;;8.60;79.80;;;;;;4990577;28;20065;-73
2023/12/26 05:38:12;;;;;;;7.18;0.60;;;8.70;79.80;;;;;;4968267;28;20051;-74
2023/12/26 05:40:40;;;;;;;4.07;0.60;;;8.80;80.00;;;;;;4977960;28;20082;-73
2023/12/26 05:43:07;;;;;;;6.20;1.00;;;8.80;80.20;;;;;;4986625;28;20054;-73
2023/12/26 05:45:34;;;;;;;11.63;1.33;;;8.80;80.20;;;;;;4968620;28;20069;-73
2023/12/26 05:48:01;;;;;;;7.95;0.85;;;8.80;80.10;;;;;;4992828;28;20057;-73
2023/12/26 05:50:29;;;;;;;5.78;0.70;;;8.90;80.00;;;;;;4993818;28;20090;-73
2023/12/26 05:52:57;;;;;;;5.82;0.85;;;8.90;79.80;;;;;;4981566;28;20061;-73
2023/12/26 05:55:24;;;;;;;7.07;0.65;;;8.90;79.70;;;;;;4965279;28;20128;-73
2023/12/26 05:57:51;;;;;;;3.20;0.50;;;8.90;79.60;;;;;;4989914;28;20059;-73
2023/12/26 06:00:18;;;;;;;3.20;0.30;;;9.00;79.70;;;;;;4995416;28;20072;-73
2023/12/26 06:02:46;;;;;;;6.40;0.88;;;9.00;79.70;;;;;;4979400;28;20161;-73
2023/12/26 06:05:15;;;;;;;5.10;0.45;;;9.00;79.80;;;;;;4985803;28;20050;-73
2023/12/26 06:07:43;;;;;;;4.95;0.82;;;9.00;79.90;;;;;;4975938;28;20046;-73
2023/12/26 06:10:10;;;;;;;8.80;0.93;;;9.00;80.00;;;;;;4975014;28;20054;-73
2023/12/26 06:12:39;;;;;;;11.40;1.13;;;9.00;80.10;;;;;;4962961;28;20133;-73
2023/12/26 06:15:07;;;;;;;5.90;0.90;;;9.00;80.00;;;;;;4991144;28;20473;-73
2023/12/26 06:17:34;;;;;;;5.13;0.60;;;9.00;79.90;;;;;;4989602;28;20688;-73
2023/12/26 06:20:01;;;;;;;7.47;1.05;;;9.00;79.90;;;;;;4967444;28;20047;-73
2023/12/26 06:22:28;;;;;;;10.87;1.40;;;9.00;79.90;;;;;;4981781;28;20426;-73
2023/12/26 06:24:56;;;;;;;8.75;1.05;;;9.00;79.70;;;;;;4976094;28;20061;-73
2023/12/26 06:27:25;;;;;;;6.45;0.63;;;9.10;79.60;;;;;;4979876;28;20157;-73
2023/12/26 06:29:52;;;;;;;8.18;1.00;;;9.10;79.50;;;;;;4988064;28;20050;-73
2023/12/26 06:32:19;;;;;;;5.53;0.75;;;9.10;79.30;;;;;;4992746;28;20805;-73
2023/12/26 06:34:46;;;;;;;6.90;0.80;;;9.10;79.00;;;;;;4976081;28;20564;-73
2023/12/26 06:37:14;;;;;;;4.07;0.40;;;9.20;79.00;;;;;;4962273;28;20046;-73
2023/12/26 06:39:42;;;;;;;7.47;1.27;;;9.20;78.80;;;;;;4976123;28;20046;-73
2023/12/26 06:42:11;;;;;;;5.78;0.85;;;9.20;78.60;;;;;;4978924;28;20136;-73
2023/12/26 06:44:38;;;;;;;2.45;0.40;;;9.20;78.70;;;;;;4989001;28;20074;-73
2023/12/26 06:47:05;;;;;;;4.57;0.80;;;9.20;78.60;;;;;;4991699;28;20077;-73
2023/12/26 06:49:32;;;;;;;6.80;1.00;;;9.20;78.60;;;;;;4976348;28;20551;-73
2023/12/26 06:52:00;;;;;;;7.78;1.02;;;9.20;79.00;;;;;;4998879;28;20051;-73
2023/12/26 06:54:27;;;;;;;6.57;0.60;;;9.20;78.60;;;;;;4963728;28;20055;-73
2023/12/26 06:56:53;;;;;;;6.20;1.17;;;9.20;79.00;;;;;;4970803;28;20133;-73
2023/12/26 06:59:22;;;;;;;7.47;1.33;;;9.20;78.90;;;;;;4972707;28;21014;-73
2023/12/26 07:01:49;;;;;;;7.63;0.73;;;9.20;78.90;;;;;;4963995;28;20062;-73
2023/12/26 07:04:16;;;;;;;7.97;1.00;;;9.20;79.20;;;;;;4980524;28;21254;-73
2023/12/26 07:06:43;;;;;;;5.13;0.73;;;9.20;79.30;;;;;;4984017;28;20049;-73
2023/12/26 07:09:10;;;;;;;8.60;1.30;;;9.20;79.10;;;;;;4987948;28;20070;-73
2023/12/26 07:11:37;;;;;;;7.07;0.83;;;9.20;79.10;;;;;;4993229;28;20051;-73
2023/12/26 07:14:04;;;;;;;7.63;1.25;;;9.20;78.80;;;;;;4986338;28;20061;-73
2023/12/26 07:16:33;;;;;;;8.60;0.82;;;9.20;78.30;;;;;;4987990;28;20121;-73
2023/12/26 07:19:00;;;;;;;6.90;0.88;;;9.20;78.30;;;;;;5006340;28;20062;-73
2023/12/26 07:21:27;;;;;;;11.32;1.15;;;9.20;78.50;;;;;;4982561;28;20078;-73
2023/12/26 07:23:54;;;;;;;5.77;0.93;;;9.20;78.30;;;;;;4988379;28;20495;-73
2023/12/26 07:26:22;;;;;;;9.65;1.00;;;9.10;78.30;;;;;;4989073;28;20042;-73
2023/12/26 07:28:49;;;;;;;8.48;1.10;;;9.10;78.40;;;;;;5000045;28;21208;-73
2023/12/26 07:31:19;;;;;;;7.45;1.35;;;9.10;78.20;;;;;;4988399;28;20845;-73
2023/12/26 07:33:49;;;;;;;7.38;1.00;;;9.00;78.10;;;;;;4988415;28;20058;-73
2023/12/26 07:36:16;;;;;;;6.93;1.10;;;9.10;77.80;;;;;;4999199;28;20054;-73
2023/12/26 07:38:43;;;;;;;8.57;1.35;;;9.00;77.80;;;;;;5000714;28;20597;-73
2023/12/26 07:41:10;;;;;;;6.03;0.82;;;9.00;77.80;;;;;;5005389;28;20054;-73
2023/12/26 07:43:38;;;;;;;11.93;1.17;;;9.00;77.60;;;;;;5006581;28;20570;-73
2023/12/26 07:46:05;;;;;;;6.60;0.95;;;9.00;77.80;;;;;;4988721;28;20916;-73
2023/12/26 07:48:32;;;;;;;12.73;1.30;;;9.00;77.90;;;;;;4999816;28;20055;-73
2023/12/26 07:51:00;;;;;;;8.15;1.40;;;9.00;77.70;;;;;;4972355;28;20402;-73
2023/12/26 07:53:28;;;;;;;11.98;1.17;;;9.00;77.50;;;;;;5006236;28;20085;-73
2023/12/26 07:55:55;;;;;;;6.53;0.88;;;9.00;77.50;;;;;;4985639;28;20053;-73
2023/12/26 07:58:22;;;;;;;9.05;1.10;;;9.00;77.50;;;;;;4988435;28;20050;-73
2023/12/26 08:00:49;;;;;;;5.80;0.80;;;9.00;77.70;;;;;;5005204;28;20057;-74
2023/12/26 08:03:16;;;;;;;10.20;1.15;;;9.00;77.70;;;;;;5005752;28;20665;-74
2023/12/26 08:05:43;;;;;;;6.43;1.05;;;8.90;77.80;;;;;;5001569;28;20059;-74
2023/12/26 08:08:11;;;;;;;9.02;1.23;;;8.90;77.80;;;;;;4987371;28;20062;-74
2023/12/26 08:10:41;;;;;;;9.07;0.88;;;8.90;78.10;;;;;;4997399;28;20141;-74
2023/12/26 08:13:08;;;;;;;5.50;0.90;;;8.90;78.20;;;;;;5001670;28;20050;-73
2023/12/26 08:15:35;;;;;;;11.10;1.00;;;8.90;78.10;;;;;;5000439;28;20543;-73
2023/12/26 08:18:04;;;;;;;10.02;1.17;;;8.90;78.10;;;;;;4974246;28;20435;-74
2023/12/26 08:20:33;;;;;;;9.18;1.25;;;9.00;78.20;;;;;;4996618;28;20050;-74
2023/12/26 08:23:00;;;;;;;8.73;1.23;;;8.90;78.20;;;;;;4977724;28;20053;-74
2023/12/26 08:25:28;;;;;;;6.80;0.87;;;8.90;78.20;;;;;;5002895;28;20137;-74
2023/12/26 08:27:55;;;;;;;7.88;0.88;;;9.00;78.30;;;;;;5002852;28;20109;-74
2023/12/26 08:30:22;;;;;;;12.32;1.60;;;9.00;78.30;;;;;;4982091;28;20074;-74
2023/12/26 08:32:49;;;;;;;9.13;1.05;;;8.90;78.40;;;;;;5006089;28;21098;-74
2023/12/26 08:35:16;;;;;;;10.40;1.35;;;8.90;78.40;;;;;;4987988;28;20729;-74
2023/12/26 08:37:43;;;;;;;10.00;1.37;;;9.00;78.50;;;;;;4965725;28;20064;-73
2023/12/26 08:40:10;;;;;;;9.15;1.58;;;9.00;78.30;;;;;;4999773;28;20788;-73
2023/12/26 08:42:38;;;;;;;6.47;0.88;;;9.00;77.60;;;;;;4987784;28;20058;-74
2023/12/26 08:45:06;;;;;;;11.32;2.13;;;9.00;77.80;;;;;;5005535;28;20726;-74
2023/12/26 08:47:33;;;;;;;7.88;1.48;;;9.00;78.00;;;;;;4986808;28;20062;-74
2023/12/26 08:50:00;;;;;;;8.67;1.10;;;9.00;78.20;;;;;;4981238;28;20061;-74
2023/12/26 08:52:27;;;;;;;7.28;1.10;;;8.90;78.30;;;;;;4980798;28;20054;-74
2023/12/26 08:54:54;;;;;;;13.35;1.40;;;9.00;78.20;;;;;;4984157;28;20543;-73
2023/12/26 08:57:21;;;;;;;8.15;0.93;;;8.90;78.30;;;;;;4975373;28;20686;-74
2023/12/26 08:59:49;;;;;;;5.00;0.75;;;8.90;78.30;;;;;;4983117;28;20058;-73
2023/12/26 09:02:16;;;;;;;5.47;0.80;;;8.90;78.10;;;;;;4970484;28;20054;-74
2023/12/26 09:04:43;;;;;;;9.38;1.17;;;8.90;78.30;;;;;;4974456;28;20066;-73
2023/12/26 09:07:10;;;;;;;8.18;0.98;;;8.90;78.40;;;;;;4982857;28;20057;-73
2023/12/26 09:09:37;;;;;;;9.45;1.30;;;8.90;78.30;;;;;;4979322;28;20050;-73
2023/12/26 09:12:04;;;;;;;12.35;1.35;;;8.90;78.40;;;;;;4976634;28;20234;-73
2023/12/26 09:14:31;;;;;;;9.17;0.80;;;8.90;78.30;;;;;;4966497;28;20050;-74
2023/12/26 09:17:00;;;;;;;10.68;1.45;;;8.90;78.30;;;;;;4983301;28;20149;-73
2023/12/26 09:19:28;;;;;;;10.25;1.30;;;8.90;78.60;;;;;;4984224;28;20058;-74
2023/12/26 09:21:55;;;;;;;9.50;1.52;;;8.90;78.50;;;;;;4973121;28;20057;-73
2023/12/26 09:24:22;;;;;;;8.60;0.90;;;8.90;78.50;;;;;;4985524;28;20148;-74
2023/12/26 09:26:49;;;;;;;10.47;1.20;;;8.90;78.70;;;;;;4983629;28;20046;-74
2023/12/26 09:29:16;;;;;;;11.68;1.10;;;8.90;78.60;;;;;;4989984;28;20133;-74
2023/12/26 09:31:43;;;;;;;15.65;1.90;;;8.90;78.60;;;;;;4995413;28;20080;-73
2023/12/26 09:34:11;;;;;;;12.27;1.45;;;8.90;78.90;;;;;;4965957;28;20050;-75
2023/12/26 09:36:38;;;;;;;7.65;0.93;;;8.90;78.50;;;;;;5006754;28;20058;-75
2023/12/26 09:39:05;;;;;;;4.93;0.63;;;9.00;78.10;;;;;;4974239;28;20046;-76
2023/12/26 09:41:32;;;;;;;8.07;1.52;;;9.00;78.30;;;;;;4986574;28;20058;-75
2023/12/26 09:43:59;;;;;;;8.48;1.40;;;9.00;78.30;;;;;;4974713;28;20076;-76
2023/12/26 09:46:28;;;;;;;7.40;1.35;;;9.00;78.40;;;;;;4971570;28;20047;-76
2023/12/26 09:49:01;;;;;;;8.13;1.33;;;9.00;78.10;;;;;;4989861;28;20097;-75
2023/12/26 09:55:53;;;;;;;13.95;1.95;;;9.00;77.90;;;;;;5012328;28;20491;-75
2023/12/26 10:03:22;;;;;;;9.63;1.05;;;9.00;77.80;;;;;;5014994;28;20058;-76
2023/12/26 10:06:22;;;;;;;9.20;1.33;;;9.00;77.70;;;;;;5000676;28;20042;-76
2023/12/26 10:08:54;;;;;;;11.73;1.63;;;9.10;77.60;;;;;;4980470;28;20050;-76
2023/12/26 10:11:21;;;;;;;10.60;1.60;;;9.10;77.30;;;;;;4990442;28;20504;-76
2023/12/26 10:13:50;;;;;;;11.68;1.27;;;9.10;77.40;;;;;;5000460;28;20065;-76
2023/12/26 10:16:17;;;;;;;9.93;1.42;;;9.20;77.40;;;;;;5005190;28;20359;-76
2023/12/26 10:18:44;;;;;;;10.77;1.60;;;9.20;77.20;;;;;;4989778;28;20057;-76
2023/12/26 10:21:12;;;;;;;9.30;0.90;;;9.20;77.20;;;;;;4983799;28;20073;-76
2023/12/26 10:23:39;;;;;;;12.10;1.33;;;9.20;76.90;;;;;;4982374;28;20051;-76
2023/12/26 10:26:53;;;;;;;7.80;1.20;;;9.20;76.60;;;;;;5011028;28;20133;-76
2023/12/26 10:29:54;;;;;;;8.68;1.00;;;9.20;76.20;;;;;;5013745;28;20125;-77
2023/12/26 10:32:25;;;;;;;11.38;1.95;;;9.20;76.20;;;;;;5019208;28;20066;-76
2023/12/26 10:34:52;;;;;;;7.90;1.67;;;9.20;75.80;;;;;;4993845;28;20065;-76
2023/12/26 10:37:21;;;;;;;8.88;0.93;;;9.20;75.70;;;;;;4993815;28;20051;-75
2023/12/26 10:39:48;;;;;;;9.38;1.77;;;9.20;75.80;;;;;;4995657;28;20488;-76
2023/12/26 10:42:17;;;;;;;8.25;1.30;;;9.20;75.90;;;;;;4974208;28;20054;-77
2023/12/26 10:44:46;;;;;;;9.55;1.65;;;9.20;75.40;;;;;;4997899;28;20112;-76
2023/12/26 10:47:15;;;;;;;9.93;1.20;;;9.20;75.40;;;;;;5005353;28;20165;-76
2023/12/26 10:49:45;;;;;;;7.43;1.58;;;9.20;75.30;;;;;;4978818;28;20126;-76
2023/12/26 10:52:16;;;;;;;6.20;1.10;;;9.20;75.40;;;;;;5004969;28;20529;-76
2023/12/26 10:54:44;;;;;;;8.10;1.25;;;9.20;75.70;;;;;;4978585;28;20061;-77
2023/12/26 10:57:12;;;;;;;9.15;1.30;;;9.20;75.60;;;;;;5006558;28;20050;-76
2023/12/26 10:59:39;;;;;;;9.43;1.17;;;9.20;75.30;;;;;;4999067;28;20552;-76
2023/12/26 11:02:05;;;;;;;5.60;1.17;;;9.20;75.70;;;;;;4993807;28;20054;-76
2023/12/26 11:04:31;;;;;;;8.23;1.80;;;9.20;75.30;;;;;;4980673;28;20115;-76
2023/12/26 11:06:59;;;;;;;9.88;1.50;;;9.20;75.20;;;;;;4997622;28;20054;-76
2023/12/26 11:09:25;;;;;;;10.70;1.70;;;9.20;75.00;;;;;;5004055;28;20145;-76
2023/12/26 11:11:51;;;;;;;10.52;1.85;;;9.20;75.30;;;;;;4980843;28;20298;-75
2023/12/26 11:14:18;;;;;;;11.52;1.40;;;9.20;75.30;;;;;;5002599;28;20160;-76
2023/12/26 11:16:44;;;;;;;9.30;2.17;;;9.20;75.50;;;;;;4982704;28;20058;-76
2023/12/26 11:19:11;;;;;;;9.87;1.43;;;9.30;75.20;;;;;;4995994;28;20082;-76
2023/12/26 11:21:39;;;;;;;5.82;0.75;;;9.40;74.70;;;;;;4976468;28;20281;-76
2023/12/26 11:24:07;;;;;;;10.68;1.80;;;9.40;75.30;;;;;;4996096;28;20178;-77
2023/12/26 11:26:33;;;;;;;11.43;1.23;;;9.40;75.00;;;;;;4994057;28;20054;-75
2023/12/26 11:29:03;;;;;;;11.00;2.08;;;9.50;74.70;;;;;;4998021;28;20062;-77
2023/12/26 11:31:29;;;;;;;7.67;1.60;;;9.50;74.30;;;;;;4992391;28;20129;-76
2023/12/26 11:33:56;;;;;;;10.50;1.95;;;9.50;74.90;;;;;;4979853;28;20907;-77
2023/12/26 11:36:23;;;;;;;12.48;2.13;;;9.50;73.90;;;;;;4997595;28;20567;-76
2023/12/26 11:38:49;;;;;;;11.02;1.55;;;9.50;74.20;;;;;;4991543;28;20061;-76
2023/12/26 11:41:16;;;;;;;7.45;0.98;;;9.50;74.10;;;;;;4994682;28;20117;-76
2023/12/26 11:43:43;;;;;;;12.30;2.13;;;9.50;74.10;;;;;;4989113;28;20074;-76
2023/12/26 11:46:09;;;;;;;8.05;1.13;;;9.50;74.30;;;;;;4993941;28;20054;-76
2023/12/26 11:48:35;;;;;;;5.55;1.15;;;9.50;74.40;;;;;;4994612;28;20374;-76
2023/12/26 11:51:02;;;;;;;9.23;1.58;;;9.50;74.80;;;;;;5003519;28;20050;-76
2023/12/26 11:53:39;;;;;;;13.50;2.47;;;9.40;74.60;;;;;;4979615;28;20174;-75
2023/12/26 11:56:06;;;;;;;11.82;1.55;;;9.40;74.50;;;;;;4975776;28;20289;-75
2023/12/26 11:58:33;;;;;;;9.05;1.23;;;9.40;74.40;;;;;;5002688;28;20319;-75
2023/12/26 12:00:59;;;;;;;11.43;2.15;;;9.40;74.60;;;;;;4987129;28;20097;-74
2023/12/26 12:03:26;;;;;;;9.80;1.02;;;9.40;74.80;;;;;;4991095;28;20506;-74
2023/12/26 12:06:13;;;;;;;11.10;1.70;;;9.40;75.10;;;;;;4997738;28;20507;-74
2023/12/26 12:09:03;;;;;;;10.35;1.48;;;9.40;75.00;;;;;;4993279;28;20750;-74
2023/12/26 12:11:29;;;;;;;7.47;1.40;;;9.40;75.00;;;;;;4995966;28;20061;-74
2023/12/26 12:13:56;;;;;;;7.53;1.38;;;9.40;75.00;;;;;;4992264;28;20535;-74
2023/12/26 12:16:23;;;;;;;11.65;1.60;;;9.40;74.80;;;;;;4974590;28;20057;-74
2023/12/26 12:18:58;;;;;;;11.47;1.53;;;9.40;75.00;;;;;;4991853;28;20155;-74
2023/12/26 12:21:36;;;;;;;9.82;1.85;;;9.40;75.00;;;;;;5000787;28;20050;-74
2023/12/26 12:24:03;;;;;;;8.35;1.30;;;9.40;75.10;;;;;;4993696;28;20057;-75
2023/12/26 12:26:30;;;;;;;10.55;1.50;;;9.40;75.00;;;;;;4992386;28;20431;-74
2023/12/26 12:29:04;;;;;;;7.65;0.73;;;9.40;74.70;;;;;;4998342;28;20061;-74
2023/12/26 12:31:30;;;;;;;10.03;1.20;;;9.40;75.00;;;;;;5004798;28;20050;-74
2023/12/26 12:34:12;;;;;;;9.93;1.63;;;9.40;75.20;;;;;;4995915;28;20065;-74
2023/12/26 12:36:38;;;;;;;10.43;1.67;;;9.30;74.40;;;;;;4994643;28;20484;-75
2023/12/26 12:39:04;;;;;;;7.45;0.98;;;9.30;74.60;;;;;;5004287;28;20086;-75
2023/12/26 12:41:34;;;;;;;6.43;0.93;;;9.40;74.50;;;;;;4977335;28;20490;-75
2023/12/26 12:44:00;;;;;;;6.20;1.35;;;9.40;74.70;;;;;;4993567;28;20189;-75
2023/12/26 12:59:18;;;;;;;6.72;0.85;;;9.40;74.70;;;;;;4929489;28;20053;-78
2023/12/26 13:03:22;;;;;;;10.02;1.45;;;9.40;74.70;;;;;;4956483;28;20523;-77
2023/12/26 13:21:32;;;;;;;10.18;1.55;;;9.20;76.20;;;;;;4978535;28;20145;-75
2023/12/26 13:23:58;;;;;;;10.25;1.70;;;9.20;76.20;;;;;;4976463;28;20061;-77
2023/12/26 13:26:25;;;;;;;8.77;1.23;;;9.20;76.60;;;;;;4999283;28;20425;-75
2023/12/26 13:28:52;;;;;;;12.23;1.58;;;9.20;76.60;;;;;;4967143;28;20054;-75
2023/12/26 13:31:18;;;;;;;11.27;2.10;;;9.20;76.90;;;;;;4996625;28;20058;-75
2023/12/26 13:33:44;;;;;;;9.60;1.60;;;9.20;77.20;;;;;;4991083;28;20502;-76
2023/12/26 13:36:11;;;;;;;11.20;1.33;;;9.20;77.90;;;;;;4968834;28;20528;-75